createdAt,value
2022-12-25T00:00:20.338Z,9.5
2022-12-25T00:05:11.557Z,8.9
2022-12-25T00:10:11.624Z,8.4
2022-12-25T00:15:11.547Z,8.4
2022-12-25T00:20:11.536Z,7.7
2022-12-25T00:25:11.600Z,7.4
2022-12-25T00:40:11.649Z,8.1
2022-12-25T00:45:11.493Z,8.1
2022-12-25T00:50:17.556Z,8.5
2022-12-25T00:55:11.658Z,8.5
2022-12-25T01:00:11.866Z,8.5
2022-12-25T01:05:18.155Z,9
2022-12-25T01:10:11.518Z,8.5
2022-12-25T01:15:11.531Z,8.5
2022-12-25T01:20:12.030Z,7.1
2022-12-25T01:25:11.840Z,7.1
2022-12-25T01:30:11.568Z,7.1
2022-12-25T01:35:11.529Z,7.1
2022-12-25T01:40:11.531Z,6.8
2022-12-25T01:45:11.499Z,6.8
2022-12-25T01:55:11.831Z,6.8
2022-12-25T02:00:11.523Z,6.8
2022-12-25T02:05:11.587Z,6.8
2022-12-25T02:10:11.526Z,6.5
2022-12-25T02:15:11.530Z,7.1
2022-12-25T02:20:11.535Z,7.1
2022-12-25T02:25:11.636Z,7.1
2022-12-25T02:30:11.569Z,7.1
2022-12-25T02:35:11.584Z,7.1
2022-12-25T02:40:11.653Z,6.9
2022-12-25T02:45:11.734Z,7.1
2022-12-25T02:50:11.551Z,7.1
2022-12-25T02:55:11.535Z,7.9
2022-12-25T03:00:11.567Z,7.9
2022-12-25T03:10:11.615Z,8.5
2022-12-25T03:15:11.592Z,8.5
2022-12-25T03:20:11.556Z,8.5
2022-12-25T03:25:11.632Z,8.5
2022-12-25T03:30:11.527Z,8.5
2022-12-25T03:35:11.567Z,8.9
2022-12-25T03:40:12.146Z,8.7
2022-12-25T03:45:12.422Z,8.9
2022-12-25T03:50:12.747Z,9.1
2022-12-25T03:55:11.818Z,8.9
2022-12-25T04:00:11.607Z,9.1
2022-12-25T04:05:11.589Z,8.9
2022-12-25T04:10:11.649Z,8.7
2022-12-25T04:15:11.537Z,8.7
2022-12-25T04:20:11.600Z,8.7
2022-12-25T04:25:14.562Z,8.3
2022-12-25T04:30:11.578Z,8.7
2022-12-25T04:35:11.508Z,8.7
2022-12-25T04:40:11.723Z,9
2022-12-25T04:45:13.727Z,9.5
2022-12-25T04:50:11.753Z,9.5
2022-12-25T04:55:12.156Z,9.5
2022-12-25T05:00:12.712Z,9.5
2022-12-25T05:05:11.523Z,9.5
2022-12-25T05:10:11.718Z,10.2
2022-12-25T05:15:11.630Z,10.2
2022-12-25T05:20:11.515Z,10.3
2022-12-25T05:25:11.577Z,10.3
2022-12-25T05:30:11.543Z,10.3
2022-12-25T05:35:11.521Z,10.2
2022-12-25T05:40:14.220Z,10.2
2022-12-25T05:45:11.551Z,10
2022-12-25T05:50:15.745Z,10.1
2022-12-25T05:55:11.612Z,10.1
2022-12-25T06:00:11.576Z,10.1
2022-12-25T06:05:12.064Z,11.2
2022-12-25T06:10:11.627Z,12.2
2022-12-25T06:15:11.791Z,12.9
2022-12-25T06:20:12.068Z,12.9
2022-12-25T06:25:11.540Z,13.5
2022-12-25T06:30:11.847Z,13.5
2022-12-25T06:35:11.626Z,13.5
2022-12-25T06:40:11.563Z,13.5
2022-12-25T06:45:11.809Z,12.9
2022-12-25T06:50:26.013Z,12.8
2022-12-25T06:55:13.226Z,12.8
2022-12-25T07:00:17.693Z,12
2022-12-25T07:05:11.772Z,11.6
2022-12-25T07:10:11.554Z,10.6
2022-12-25T07:15:11.570Z,10.1
2022-12-25T07:20:11.555Z,9.6
2022-12-25T07:25:11.579Z,9.6
2022-12-25T07:30:11.585Z,9.6
2022-12-25T07:35:11.679Z,9.6
2022-12-25T07:40:11.650Z,9.6
2022-12-25T07:45:11.889Z,9.9
2022-12-25T07:50:12.915Z,9.9
2022-12-25T08:00:23.403Z,10
2022-12-25T08:05:23.345Z,10
2022-12-25T08:15:26.480Z,10
2022-12-25T08:20:26.836Z,9.9
2022-12-25T08:25:26.307Z,9.5
2022-12-25T08:30:26.469Z,9.3
2022-12-25T08:35:26.687Z,8.9
2022-12-25T08:40:26.526Z,7.9
2022-12-25T08:45:34.644Z,7.9
2022-12-25T08:50:44.316Z,7.9
2022-12-25T08:55:26.662Z,8.6
2022-12-25T09:00:26.312Z,8.6
2022-12-25T09:05:30.829Z,6.8
2022-12-25T09:10:26.357Z,6.8
2022-12-25T09:15:26.329Z,6.8
2022-12-25T09:20:27.111Z,6.8
2022-12-25T09:25:26.373Z,7.2
2022-12-25T09:30:26.362Z,7.2
2022-12-25T09:35:26.365Z,7.7
2022-12-25T09:40:26.461Z,7.7
2022-12-25T09:45:27.809Z,8.5
2022-12-25T09:50:37.938Z,8.5
2022-12-25T09:55:26.700Z,7.7
2022-12-25T10:00:26.520Z,7.7
2022-12-25T10:05:26.361Z,6.7
2022-12-25T10:10:26.831Z,6.2
2022-12-25T10:15:26.799Z,5.6
2022-12-25T10:20:26.356Z,5.6
2022-12-25T10:25:26.448Z,5.5
2022-12-25T10:30:26.355Z,4.8
2022-12-25T10:35:26.442Z,5.5
2022-12-25T10:40:26.389Z,5.4
2022-12-25T10:45:26.504Z,5.4
2022-12-25T10:50:46.614Z,5.4
2022-12-25T10:55:30.734Z,4.8
2022-12-25T11:00:26.328Z,5.4
2022-12-25T11:05:26.430Z,5.4
2022-12-25T11:10:26.373Z,4.8
2022-12-25T11:15:26.374Z,4.8
2022-12-25T11:20:26.353Z,4.8
2022-12-25T11:25:27.156Z,5
2022-12-25T11:30:26.348Z,5
2022-12-25T11:35:26.432Z,5
2022-12-25T11:40:26.441Z,5
2022-12-25T11:45:26.390Z,5
2022-12-25T11:50:40.751Z,4.6
2022-12-25T11:55:26.616Z,3.9
2022-12-25T12:00:27.831Z,3.8
2022-12-25T12:05:27.534Z,3.8
2022-12-25T12:10:26.468Z,3.8
2022-12-25T12:15:26.382Z,3.8
2022-12-25T12:20:26.475Z,3.8
2022-12-25T12:25:26.370Z,3.8
2022-12-25T12:30:26.531Z,3.8
2022-12-25T12:35:26.422Z,3.7
2022-12-25T12:40:26.360Z,3.8
2022-12-25T12:45:26.456Z,3.8
2022-12-25T12:50:42.564Z,3.6
2022-12-25T12:55:26.496Z,3.2
2022-12-25T13:00:26.409Z,3.6
2022-12-25T13:05:34.371Z,4
2022-12-25T13:10:26.574Z,4
2022-12-25T13:21:46.348Z,4.9
2022-12-25T13:25:26.531Z,5.25
2022-12-25T13:30:26.442Z,5.6
2022-12-25T13:35:26.588Z,5.25
2022-12-25T13:40:26.686Z,4.9
2022-12-25T13:45:26.637Z,4.55
2022-12-25T13:50:26.431Z,4.3
2022-12-25T13:55:26.732Z,4.3
2022-12-25T14:00:30.745Z,4.2
2022-12-25T14:05:26.524Z,4.2
2022-12-25T14:10:26.477Z,4.2
2022-12-25T14:15:26.569Z,4
2022-12-25T14:20:26.684Z,4
2022-12-25T14:25:26.500Z,4
2022-12-25T14:30:26.538Z,4
2022-12-25T14:35:27.999Z,4
2022-12-25T14:40:26.481Z,4
2022-12-25T14:45:26.445Z,5.1
2022-12-25T14:50:26.422Z,5.2
2022-12-25T14:55:26.809Z,5.3
2022-12-25T15:00:26.399Z,5.4
2022-12-25T15:05:26.495Z,5.4
2022-12-25T15:10:58.686Z,5.7
2022-12-25T15:15:26.396Z,5.8
2022-12-25T15:20:26.631Z,5.8
2022-12-25T15:25:26.530Z,5.8
2022-12-25T15:30:26.453Z,6.1
2022-12-25T15:35:26.588Z,6.1
2022-12-25T15:40:26.386Z,5.6
2022-12-25T15:45:26.377Z,5.6
2022-12-25T15:50:27.498Z,5.6
2022-12-25T15:55:26.895Z,5.6
2022-12-25T16:00:26.389Z,6.1
2022-12-25T16:05:28.691Z,6.4
2022-12-25T16:10:26.584Z,6.4
2022-12-25T16:15:26.417Z,6.4
2022-12-25T16:20:28.115Z,6.4
2022-12-25T16:25:26.821Z,7.6
2022-12-25T16:30:26.393Z,7.8
2022-12-25T16:35:26.873Z,7.6
2022-12-25T16:40:26.606Z,7.8
2022-12-25T16:45:26.452Z,9
2022-12-25T16:50:27.125Z,9
2022-12-25T16:55:30.252Z,9.3
2022-12-25T17:00:26.429Z,9.3
2022-12-25T17:05:26.440Z,9.3
2022-12-25T17:10:26.544Z,9.3
2022-12-25T17:15:26.527Z,9
2022-12-25T17:20:26.629Z,8.7
2022-12-25T17:25:27.010Z,8.1
2022-12-25T17:30:27.015Z,8.1
2022-12-25T17:35:27.525Z,7.9
2022-12-25T17:40:27.896Z,7.6
2022-12-25T17:45:26.651Z,7.2
2022-12-25T17:50:26.655Z,7.6
2022-12-25T17:55:26.720Z,7.6
2022-12-25T18:00:26.525Z,7.2
2022-12-25T18:05:26.547Z,7.2
2022-12-25T18:10:26.708Z,7.5
2022-12-25T18:15:26.641Z,7.5
2022-12-25T18:20:26.933Z,7.8
2022-12-25T18:25:26.728Z,7.8
2022-12-25T18:30:26.551Z,7.8
2022-12-25T18:35:26.520Z,7.8
2022-12-25T18:40:26.757Z,7.8
2022-12-25T18:45:27.022Z,7.8
2022-12-25T18:50:26.785Z,7.8
2022-12-25T18:55:26.765Z,7.8
2022-12-25T19:00:26.718Z,11.4
2022-12-25T19:05:26.744Z,9.2
2022-12-25T19:10:26.667Z,9.7
2022-12-25T19:15:26.647Z,10.3
2022-12-25T19:20:27.888Z,10.3
2022-12-25T19:25:26.831Z,9.7
2022-12-25T19:30:26.611Z,9.7
2022-12-25T19:35:26.715Z,9.7
2022-12-25T19:40:26.725Z,9.7
2022-12-25T19:45:26.711Z,9
2022-12-25T19:50:26.748Z,8.5
2022-12-25T19:55:26.718Z,8.5
2022-12-25T20:00:26.774Z,8.9
2022-12-25T20:05:26.829Z,8.9
2022-12-25T20:10:26.682Z,8.9
2022-12-25T20:15:26.650Z,15.1
2022-12-25T20:20:26.839Z,15.1
2022-12-25T20:25:26.808Z,16
2022-12-25T20:30:26.768Z,16
2022-12-25T20:35:26.639Z,15.1
2022-12-25T20:40:28.214Z,14.7
2022-12-25T20:45:26.554Z,14.6
2022-12-25T20:50:26.656Z,13.5
2022-12-25T20:55:28.099Z,13.5
2022-12-25T21:00:26.539Z,12.4
2022-12-25T21:05:26.785Z,10.9
2022-12-25T21:10:27.249Z,10.3
2022-12-25T21:15:26.652Z,10.3
2022-12-25T21:20:27.018Z,9.7
2022-12-25T21:25:27.010Z,9.7
2022-12-25T21:30:27.030Z,9.2
2022-12-25T21:35:26.752Z,9.7
2022-12-25T21:40:26.652Z,9.8
2022-12-25T21:45:27.048Z,10.3
2022-12-25T21:50:26.684Z,10.3
2022-12-25T21:55:26.738Z,10.3
2022-12-25T22:00:26.671Z,10.8
2022-12-25T22:05:37.131Z,10.8
2022-12-25T22:10:26.824Z,10.8
2022-12-25T22:15:26.657Z,9.9
2022-12-25T22:20:29.734Z,9.8
2022-12-25T22:25:26.925Z,8.1
2022-12-25T22:30:26.569Z,8.1
2022-12-25T22:35:26.719Z,7.9
2022-12-25T22:40:26.813Z,7.8
2022-12-25T22:45:27.139Z,7.9
2022-12-25T22:50:26.641Z,8.1
2022-12-25T22:55:26.935Z,8.2
2022-12-25T23:00:26.713Z,8.2
2022-12-25T23:05:27.073Z,7.8
2022-12-25T23:10:33.753Z,7.8
2022-12-25T23:15:28.114Z,8.2
2022-12-25T23:20:27.375Z,7.8
2022-12-25T23:25:27.069Z,7.5
2022-12-25T23:30:26.770Z,7.3
2022-12-25T23:35:27.105Z,7.5
2022-12-25T23:40:28.680Z,7.5
2022-12-25T23:45:26.871Z,7.1
2022-12-25T23:50:29.088Z,6.8
2022-12-25T23:55:27.037Z,6.7
